Latest Coastal Weather Observations for Proserpine

IDQ60701

Issued at 5:25 pm EST Tuesday 16 September 2014 (issued every 10 minutes, with the page automatically refreshed every 10 minutes)

About coastal observations | Map of coastal stations | Coastal observations for QLD | Marine services | Other Formats
Station Details ID: 033247 Name: PROSERPINE AIRPORT Lat: -20.49 Lon: 148.56 Height: 19.7 m
Data from the previous 72 hours. | See also: Recent months at Proserpine
Date/Time
EST
Temp

°C
Wind Pressure Rain
since 9am
mm
Weather Cloud Vis
km
Sea
Height
m
Swell
Dir
 
Speed
knots
Gust
knots
hPa Trend Height
m
Period
s
Dir
16/05:00pm 25.1 E 12 16 1014.0 - 0.0 - - 10 - - - -
16/04:30pm 26.2 ESE 13 16 1013.9 - 0.0 - - 10 - - - -
16/04:00pm 26.2 ESE 12 17 1014.0 - 0.0 - - 10 - - - -
16/03:30pm 26.9 E 13 19 1014.0 - 0.0 - - 10 - - - -
16/03:00pm 27.6 E 12 17 1014.0 - 0.0 Fine Mostly clear 30 - - - -
16/02:30pm 27.3 E 12 18 1014.4 - 0.0 - - 10 - - - -
16/02:00pm 28.4 E 11 15 1014.7 - 0.0 - - 10 - - - -
16/01:30pm 27.5 E 11 14 1015.1 - 0.0 - - 10 - - - -
16/01:00pm 28.2 ESE 11 15 1015.6 - 0.0 - - 10 - - - -
16/12:30pm 27.3 E 10 17 1016.0 - 0.0 - - 10 - - - -
16/12:00pm 26.8 ESE 10 16 1016.3 - 0.0 - - 10 - - - -
16/11:30am 25.6 ESE 11 15 1016.8 - 0.0 - - 10 - - - -
16/11:00am 25.7 E 7 12 1017.4 - 0.0 - - 10 - - - -
16/10:30am 24.7 ESE 7 10 1017.9 - 0.0 - - 10 - - - -
16/10:00am 24.2 E 5 11 1018.2 - 0.0 - - 10 - - - -
16/09:30am 23.5 ESE 7 10 1018.5 - 0.0 - Partly cloudy 10 - - - -
16/09:00am 22.4 SE 6 10 1018.3 - 0.0 Fine Mostly clear 35 - - - -
16/08:30am 21.2 SSE 3 6 1018.5 - 0.0 - - 10 - - - -
16/08:00am 18.6 S 4 5 1018.5 - 0.0 - - 10 - - - -
16/07:30am 16.1 S 4 6 1018.2 - 0.0 - - 10 - - - -
16/07:00am 14.2 SW 3 4 1017.7 - 0.0 - - 10 - - - -
16/06:37am 12.6 CALM 0 1 1017.6 - 0.0 - - 10 - - - -
16/06:30am 12.1 S 1 3 1017.5 - 0.0 - - 10 - - - -
16/06:18am 11.3 CALM 0 0 1017.3 - 0.0 - - 4 - - - -
16/06:00am 12.0 SSW 2 4 1017.0 - 0.0 - - 10 - - - -
16/05:30am 11.6 CALM 0 0 1017.0 - 0.0 - - 10 - - - -
16/05:27am 11.3 CALM 0 0 1016.9 - 0.0 - - 10 - - - -
16/05:00am 10.8 CALM 0 0 1016.8 - 0.0 - Partly cloudy 2 - - - -
16/04:30am 12.7 CALM 0 1 1016.7 - 0.0 - Partly cloudy 0.2 - - - -
16/04:26am 12.7 CALM 0 1 1016.7 - 0.0 - Partly cloudy 0.2 - - - -
16/04:00am 12.5 CALM 0 2 1016.5 - 0.0 - Partly cloudy 0.2 - - - -
16/03:48am 12.5 NNE 2 4 1016.3 - 0.0 - Partly cloudy 0.3 - - - -
16/03:37am 12.8 SW 1 4 1016.3 - 0.0 - Partly cloudy 6 - - - -
16/03:30am 12.0 CALM 0 0 1016.3 - 0.0 - Partly cloudy 10 - - - -
16/03:00am 14.2 SSW 3 4 1016.3 - 0.0 - - 10 - - - -
16/02:30am 14.0 SSW 3 5 1016.3 - 0.0 - - 10 - - - -
16/02:26am 14.0 SSW 2 5 1016.3 - 0.0 - - 10 - - - -
16/02:00am 14.7 CALM 0 0 1016.5 - 0.0 - - 6 - - - -
16/01:51am 14.6 SW 2 3 1016.5 - 0.0 - - 5 - - - -
16/01:30am 14.9 SSW 2 4 1016.7 - 0.0 - - 10 - - - -
16/01:00am 14.9 SSW 6 7 1016.8 - 0.0 - - 10 - - - -
16/12:30am 15.2 SW 6 7 1017.0 - 0.0 - - 10 - - - -
16/12:00am 15.5 SSW 6 7 1017.1 - 0.0 - - 10 - - - -
 
Date/Time
EST
Temp

°C
Wind Pressure Rain
since 9am
mm
Weather Cloud Vis
km
Sea
Height
m
Swell
Dir
 
Speed
knots
Gust
knots
hPa Trend Height
m
Period
s
Dir
15/11:30pm 15.6 SSW 6 7 1017.2 - 0.0 - Partly cloudy 10 - - - -
15/11:00pm 15.9 SSW 5 6 1017.3 - 0.0 - - 10 - - - -
15/10:30pm 16.4 S 4 5 1017.2 - 0.0 - - 10 - - - -
15/10:00pm 16.8 S 2 3 1017.4 - 0.0 - Partly cloudy 10 - - - -
15/09:30pm 16.9 SSW 5 7 1017.4 - 0.0 - Partly cloudy 10 - - - -
15/09:00pm 17.5 CALM 0 0 1017.3 - 0.0 - Cloudy 10 - - - -
15/08:30pm 18.5 SSW 3 4 1017.2 - 0.0 - Partly cloudy 10 - - - -
15/08:00pm 19.0 SE 2 4 1017.1 - 0.0 - Partly cloudy 10 - - - -
15/07:30pm 19.5 ESE 6 9 1016.7 - 0.0 - Partly cloudy 10 - - - -
15/07:00pm 19.6 ESE 6 8 1016.5 - 0.0 - Partly cloudy 10 - - - -
15/06:30pm 20.0 ESE 6 9 1016.1 - 0.0 - Partly cloudy 10 - - - -
15/06:00pm 20.9 ESE 8 11 1015.7 - 0.0 - - 10 - - - -
15/05:30pm 22.0 ESE 10 14 1015.4 - 0.0 - - 10 - - - -
15/05:00pm 23.0 E 12 16 1015.1 - 0.0 - - 10 - - - -
15/04:30pm 23.6 E 12 16 1014.9 - 0.0 - - 10 - - - -
15/04:00pm 24.4 ESE 12 17 1014.7 - 0.0 - - 10 - - - -
15/03:30pm 24.9 E 13 17 1014.5 - 0.0 - - 10 - - - -
15/03:00pm 25.4 E 15 21 1014.6 - 0.0 Fine Mostly clear 30 - - - -
15/02:30pm 26.6 E 13 19 1014.8 - 0.0 - - 10 - - - -
15/02:00pm 26.7 E 12 17 1015.1 - 0.0 - - 10 - - - -
15/01:30pm 26.4 E 12 18 1015.4 - 0.0 - - 10 - - - -
15/01:00pm 25.8 E 13 19 1015.7 - 0.0 - - 10 - - - -
15/12:30pm 26.1 E 12 18 1016.1 - 0.0 - - 10 - - - -
15/12:00pm 25.9 ESE 14 22 1016.4 - 0.0 - Cloudy 10 - - - -
15/11:30am 26.0 SE 13 19 1016.9 - 0.0 - Partly cloudy 10 - - - -
15/11:00am 25.4 SE 14 21 1017.5 - 0.0 - Partly cloudy 10 - - - -
15/10:30am 25.1 ESE 13 19 1018.0 - 0.0 - Partly cloudy 10 - - - -
15/10:00am 24.9 ESE 13 17 1018.2 - 0.0 - Partly cloudy 10 - - - -
15/09:30am 23.8 ESE 13 20 1018.6 - 0.0 - Partly cloudy 10 - - - -
15/09:00am 23.4 ESE 13 17 1018.6 - 0.0 Fine Partly cloudy 25 - - - -
15/08:30am 23.5 SSE 9 12 1018.7 - 0.0 - Partly cloudy 10 - - - -
15/08:00am 20.9 S 10 15 1018.6 - 0.0 - Partly cloudy 10 - - - -
15/07:30am 19.1 S 6 8 1018.4 - 0.0 - - 10 - - - -
15/07:00am 16.6 SSW 6 7 1018.1 - 0.0 - - 10 - - - -
15/06:30am 15.5 SSW 7 8 1017.9 - 0.0 - Partly cloudy 10 - - - -
15/06:00am 14.8 SSW 6 7 1017.4 - 0.0 - Cloudy 10 - - - -
15/05:30am 14.9 SSW 7 8 1017.4 - 0.0 - - 10 - - - -
15/05:00am 14.8 SSW 5 6 1017.1 - 0.0 - - 10 - - - -
15/04:30am 15.0 SW 6 7 1017.1 - 0.0 - - 10 - - - -
15/04:00am 15.1 SSW 7 8 1016.9 - 0.0 - - 10 - - - -
15/03:30am 15.3 SSW 5 6 1016.9 - 0.0 - - 10 - - - -
15/03:00am 16.2 S 5 6 1016.9 - 0.0 - - 10 - - - -
15/02:30am 17.5 S 8 10 1017.1 - 0.0 - - 10 - - - -
15/02:00am 17.7 S 8 11 1017.0 - 0.0 - - 10 - - - -
15/01:30am 17.5 S 7 10 1017.4 - 0.0 - - 10 - - - -
15/01:00am 17.8 SSE 8 11 1017.7 - 0.0 - - 10 - - - -
15/12:30am 18.0 S 10 12 1017.8 - 0.0 - - 10 - - - -
15/12:00am 17.5 S 8 11 1018.0 - 0.0 - - 10 - - - -
 
Date/Time
EST
Temp

°C
Wind Pressure Rain
since 9am
mm
Weather Cloud Vis
km
Sea
Height
m
Swell
Dir
 
Speed
knots
Gust
knots
hPa Trend Height
m
Period
s
Dir
14/11:30pm 16.2 S 7 9 1018.4 - 0.0 - Partly cloudy 10 - - - -
14/11:00pm 16.4 SW 3 4 1018.6 - 0.0 - - 10 - - - -
14/10:30pm 16.4 S 6 7 1018.3 - 0.0 - - 10 - - - -
14/10:00pm 17.5 S 6 7 1018.4 - 0.0 - - 10 - - - -
14/09:30pm 18.4 S 6 8 1018.4 - 0.0 - Partly cloudy 10 - - - -
14/09:00pm 18.3 S 6 7 1018.2 - 0.0 - - 10 - - - -
14/08:30pm 18.9 S 3 4 1018.3 - 0.0 - Partly cloudy 10 - - - -
14/08:00pm 19.3 SE 7 9 1018.2 - 0.0 - - 10 - - - -
14/07:30pm 19.8 ESE 8 10 1018.0 - 0.0 - - 10 - - - -
14/07:00pm 20.3 ESE 10 14 1017.7 - 0.0 - - 10 - - - -
14/06:30pm 20.5 ESE 9 14 1017.5 - 0.0 - - 10 - - - -
14/06:00pm 21.1 ESE 11 16 1017.1 - 0.0 - - 10 - - - -
14/05:30pm 21.9 ESE 12 18 1017.1 - 0.0 - - 10 - - - -
14/05:00pm 23.0 ESE 13 18 1016.9 - 0.0 - - 10 - - - -
14/04:30pm 23.1 ESE 15 21 1016.8 - 0.0 - - 10 - - - -
14/04:00pm 23.8 ESE 16 21 1016.4 - 0.0 - - 10 - - - -
14/03:30pm 24.6 ESE 15 20 1016.3 - 0.0 - - 10 - - - -
14/03:00pm 24.7 ESE 15 22 1016.2 - 0.0 Haze Mostly clear 20 - - - -
14/02:30pm 25.1 E 15 22 1016.7 - 0.0 - - 10 - - - -
14/02:00pm 24.8 ESE 16 22 1016.9 - 0.0 - - 10 - - - -
14/01:30pm 25.6 ESE 16 23 1017.1 - 0.0 - - 10 - - - -
14/01:00pm 25.7 ESE 16 24 1017.4 - 0.0 - - 10 - - - -
14/12:34pm 25.4 ESE 15 25 1017.9 - 0.0 - - 10 - - - -
14/12:30pm 25.7 ESE 16 25 1018.0 - 0.0 - - 10 - - - -
14/12:00pm 25.2 ESE 17 24 1018.3 - 0.0 - - 10 - - - -
14/11:30am 25.2 ESE 16 23 1018.7 - 0.0 - - 10 - - - -
14/11:00am 25.8 ESE 15 26 1019.1 - 0.0 - Partly cloudy 10 - - - -
14/10:57am 24.7 ESE 16 26 1019.2 - 0.0 - Partly cloudy 10 - - - -
14/10:30am 24.8 SE 16 22 1019.4 - 0.0 - Partly cloudy 10 - - - -
14/10:00am 24.2 ESE 17 22 1019.6 - 0.0 - - 10 - - - -
14/09:30am 23.5 SE 17 22 1019.6 - 0.0 - Partly cloudy 10 - - - -
14/09:00am 23.4 SE 17 23 1019.3 - 0.0 Fine Partly cloudy 25 - - - -
14/08:30am 22.5 SSE 10 16 1019.3 - 0.0 - Partly cloudy 10 - - - -
14/08:00am 20.6 S 13 17 1019.1 - 0.0 - - 10 - - - -
14/07:30am 19.3 S 9 12 1018.9 - 0.0 - - 10 - - - -
14/07:00am 17.4 SSW 4 6 1018.8 - 0.0 - - 10 - - - -
14/06:30am 15.5 SSW 4 5 1018.5 - 0.0 - - 10 - - - -
14/06:00am 15.1 SSW 6 7 1018.0 - 0.0 - - 10 - - - -
14/05:30am 15.8 S 6 9 1017.8 - 0.0 - - 10 - - - -
14/05:00am 15.3 S 6 8 1017.6 - 0.0 - - 10 - - - -
14/04:30am 16.7 S 7 10 1017.4 - 0.0 - - 10 - - - -
14/04:00am 17.1 S 8 11 1017.2 - 0.0 - - 10 - - - -
14/03:30am 17.4 SSE 10 13 1017.2 - 0.0 - - 10 - - - -
14/03:00am 17.4 SSE 10 13 1017.5 - 0.0 - - 10 - - - -
14/02:30am 17.4 SSE 10 13 1017.8 - 0.0 - - 10 - - - -
14/02:00am 17.3 S 8 11 1018.3 - 0.0 - - 10 - - - -
14/01:30am 16.1 SSW 7 8 1018.8 - 0.0 - - 10 - - - -
14/01:00am 15.9 SSW 6 7 1019.2 - 0.0 - - 10 - - - -
14/12:30am 16.7 S 6 8 1019.5 - 0.0 - - 10 - - - -
14/12:00am 17.0 S 7 8 1019.6 - 0.0 - - 10 - - - -
 
Date/Time
EST
Temp

°C
Wind Pressure Rain
since 9am
mm
Weather Cloud Vis
km
Sea
Height
m
Swell
Dir
 
Speed
knots
Gust
knots
hPa Trend Height
m
Period
s
Dir
13/11:30pm 17.7 S 8 10 1019.9 - 0.0 - Partly cloudy 10 - - - -
13/11:00pm 18.1 S 8 12 1020.0 - 0.0 - - 10 - - - -
13/10:30pm 18.1 S 8 11 1020.1 - 0.0 - - 10 - - - -
13/10:00pm 18.4 S 8 10 1020.1 - 0.0 - - 10 - - - -
13/09:30pm 19.1 SSE 9 12 1020.2 - 0.0 - Partly cloudy 10 - - - -
13/09:00pm 18.9 S 6 9 1020.2 - 0.0 - Partly cloudy 10 - - - -
13/08:30pm 19.2 S 5 6 1020.1 - 0.0 - Partly cloudy 10 - - - -
13/08:00pm 20.3 ESE 11 16 1019.8 - 0.0 - Partly cloudy 10 - - - -
13/07:30pm 20.5 ESE 11 15 1019.3 - 0.0 - - 10 - - - -
13/07:00pm 20.6 ESE 11 15 1019.1 - 0.0 - - 10 - - - -
13/06:30pm 20.7 ESE 12 17 1018.6 - 0.0 - - 10 - - - -
13/06:00pm 21.2 ESE 15 21 1018.3 - 0.0 - - 10 - - - -
13/05:30pm 21.8 ESE 15 23 1018.4 - 0.0 - Partly cloudy 10 - - - -

Other Formats:

Comma delimited format used in spreadsheet applications
http://www.bom.gov.au/fwo/IDQ60701/IDQ60701.94365.axf

JavaScript Object Notation format (JSON) in row-major order
http://www.bom.gov.au/fwo/IDQ60701/IDQ60701.94365.json